Time;durP1;ratioP1;P1;durP2;ratioP2;P2;SDS_P1;SDS_P2;PMS_P1;PMS_P2;Temp;Humidity;BMP_temperature;BMP_pressure;BME280_temperature;BME280_humidity;BME280_pressure;Samples;Min_cycle;Max_cycle;Signal;HPM_P1;HPM_P2
2021/06/24 00:01:41;;;;;;;14.07;10.38;;;14.60;78.00;;;;;;5011470;28;20362;-72
2021/06/24 00:04:06;;;;;;;17.52;10.18;;;14.50;78.00;;;;;;5013988;28;20038;-74
2021/06/24 00:06:32;;;;;;;15.45;10.80;;;14.50;78.10;;;;;;5013568;28;20034;-72
2021/06/24 00:08:58;;;;;;;13.63;11.20;;;14.50;78.10;;;;;;5012248;28;20053;-75
2021/06/24 00:11:24;;;;;;;15.98;10.85;;;14.50;78.40;;;;;;5008659;28;20390;-73
2021/06/24 00:13:49;;;;;;;15.80;10.15;;;14.50;78.40;;;;;;5013824;28;20037;-73
2021/06/24 00:16:15;;;;;;;15.68;10.82;;;14.40;78.50;;;;;;5024334;28;20423;-72
2021/06/24 00:18:41;;;;;;;14.07;10.40;;;14.50;78.60;;;;;;5018360;28;20057;-73
2021/06/24 00:21:07;;;;;;;14.75;10.32;;;14.50;78.60;;;;;;5012779;28;20069;-74
2021/06/24 00:23:34;;;;;;;16.00;10.73;;;14.50;78.60;;;;;;5013005;28;20042;-78
2021/06/24 00:26:00;;;;;;;16.15;10.82;;;14.50;78.80;;;;;;5014592;28;20060;-76
2021/06/24 00:28:28;;;;;;;19.00;10.98;;;14.40;78.80;;;;;;5012365;28;20425;-75
2021/06/24 00:30:56;;;;;;;14.35;11.20;;;14.50;78.90;;;;;;5014672;28;20042;-73
2021/06/24 00:33:22;;;;;;;15.60;10.65;;;14.50;79.10;;;;;;5021726;28;20396;-74
2021/06/24 00:35:48;;;;;;;15.23;10.85;;;14.40;78.80;;;;;;5027966;28;20025;-71
2021/06/24 00:38:14;;;;;;;16.15;11.95;;;14.40;79.20;;;;;;5024327;28;20045;-73
2021/06/24 00:40:42;;;;;;;18.33;11.60;;;14.40;79.30;;;;;;5017747;28;20543;-72
2021/06/24 00:43:10;;;;;;;16.42;11.85;;;14.40;79.20;;;;;;5011059;28;20075;-73
2021/06/24 00:45:37;;;;;;;17.17;11.73;;;14.50;79.20;;;;;;5014216;28;20088;-80
2021/06/24 00:48:05;;;;;;;13.60;10.95;;;14.50;79.20;;;;;;5010776;28;20150;-72
2021/06/24 00:50:31;;;;;;;17.08;11.32;;;14.50;79.30;;;;;;5015107;28;20038;-73
2021/06/24 00:52:57;;;;;;;14.68;11.48;;;14.50;79.30;;;;;;5016289;28;20428;-73
2021/06/24 00:55:40;;;;;;;15.63;11.27;;;14.40;79.30;;;;;;5010203;28;20049;-72
2021/06/24 00:58:15;;;;;;;17.02;11.60;;;14.40;79.30;;;;;;5011517;28;20614;-76
2021/06/24 01:00:43;;;;;;;16.42;11.00;;;14.40;79.40;;;;;;5015047;28;20037;-73
2021/06/24 01:03:10;;;;;;;14.10;12.55;;;14.50;79.50;;;;;;5012414;28;20518;-76
2021/06/24 01:05:37;;;;;;;13.57;11.52;;;14.50;79.40;;;;;;5009757;28;20076;-73
2021/06/24 01:08:08;;;;;;;16.77;11.60;;;14.50;79.60;;;;;;5008778;28;20468;-73
2021/06/24 01:10:34;;;;;;;15.02;12.70;;;14.60;79.70;;;;;;5017826;28;20061;-77
2021/06/24 01:13:01;;;;;;;17.60;12.73;;;14.50;79.80;;;;;;5007312;28;20030;-74
2021/06/24 01:15:27;;;;;;;16.98;12.65;;;14.50;80.00;;;;;;5010623;28;20037;-81
2021/06/24 01:17:57;;;;;;;14.18;11.75;;;14.50;80.00;;;;;;5013598;28;20049;-73
2021/06/24 01:20:32;;;;;;;16.70;11.90;;;14.50;80.10;;;;;;5009366;28;20125;-76
2021/06/24 01:22:58;;;;;;;17.17;12.40;;;14.60;80.10;;;;;;5011913;28;20072;-75
2021/06/24 01:25:25;;;;;;;15.25;12.10;;;14.50;79.80;;;;;;5011708;28;20384;-78
2021/06/24 01:27:59;;;;;;;16.90;12.38;;;14.50;79.90;;;;;;5010545;28;20045;-80
2021/06/24 01:30:26;;;;;;;16.48;12.35;;;14.50;80.00;;;;;;5010772;28;20740;-73
2021/06/24 01:32:52;;;;;;;16.25;12.90;;;14.50;80.20;;;;;;5014731;28;20033;-74
2021/06/24 01:35:23;;;;;;;13.52;12.07;;;14.40;80.30;;;;;;5011964;28;20463;-79
2021/06/24 01:37:49;;;;;;;16.60;12.43;;;14.50;80.50;;;;;;5007964;28;20044;-73
2021/06/24 01:40:16;;;;;;;15.45;13.13;;;14.50;80.30;;;;;;5008097;28;20026;-75
2021/06/24 01:42:41;;;;;;;17.73;12.30;;;14.50;80.40;;;;;;5009958;28;20108;-75
2021/06/24 01:45:09;;;;;;;23.98;13.55;;;14.40;80.50;;;;;;5010457;28;20190;-74
2021/06/24 01:47:35;;;;;;;15.23;13.30;;;14.50;80.70;;;;;;5008430;28;20038;-74
2021/06/24 01:50:01;;;;;;;16.98;13.77;;;14.50;80.80;;;;;;5010704;28;20045;-73
2021/06/24 01:52:26;;;;;;;17.27;14.13;;;14.50;80.90;;;;;;5012222;28;20034;-73
2021/06/24 01:54:52;;;;;;;18.70;14.98;;;14.50;81.00;;;;;;5011960;28;20033;-78
2021/06/24 01:57:18;;;;;;;20.48;15.68;;;14.40;81.20;;;;;;5008885;28;20037;-76
2021/06/24 01:59:45;;;;;;;19.25;15.55;;;14.40;81.40;;;;;;5014509;28;20038;-75
2021/06/24 02:02:11;;;;;;;19.15;15.43;;;14.40;81.50;;;;;;5010887;28;20108;-74
2021/06/24 02:04:36;;;;;;;19.60;15.73;;;14.30;81.60;;;;;;5013332;28;20113;-79
2021/06/24 02:07:02;;;;;;;21.02;16.48;;;14.30;81.90;;;;;;5010469;28;20456;-81
2021/06/24 02:09:28;;;;;;;20.40;16.02;;;14.30;81.90;;;;;;5011385;28;20469;-73
2021/06/24 02:11:58;;;;;;;17.75;15.88;;;14.20;81.90;;;;;;5011836;28;20092;-73
2021/06/24 02:14:24;;;;;;;18.60;14.98;;;14.30;82.10;;;;;;5015018;28;20355;-72
2021/06/24 02:16:50;;;;;;;27.45;16.10;;;14.30;81.90;;;;;;5011620;28;20038;-71
2021/06/24 02:19:16;;;;;;;20.50;14.88;;;14.30;81.90;;;;;;5013936;28;20111;-78
2021/06/24 02:21:42;;;;;;;19.45;15.25;;;14.30;81.90;;;;;;5008693;28;20108;-73
2021/06/24 02:24:07;;;;;;;17.60;15.00;;;14.20;81.70;;;;;;5009859;28;20540;-72
2021/06/24 02:26:33;;;;;;;23.10;16.23;;;14.20;81.70;;;;;;5010949;28;20084;-80
2021/06/24 02:28:59;;;;;;;18.45;14.82;;;14.20;81.90;;;;;;5009990;28;20115;-75
2021/06/24 02:31:25;;;;;;;18.63;14.77;;;14.20;82.00;;;;;;5011880;28;20123;-72
2021/06/24 02:33:51;;;;;;;19.55;15.23;;;14.10;81.90;;;;;;5009876;28;20050;-75
2021/06/24 02:36:16;;;;;;;19.15;14.55;;;14.10;82.00;;;;;;5006806;28;20440;-74
2021/06/24 02:38:42;;;;;;;17.95;15.60;;;14.20;82.10;;;;;;5021256;28;20064;-73
2021/06/24 02:41:08;;;;;;;19.33;14.98;;;14.10;82.20;;;;;;5013403;28;20030;-72
2021/06/24 02:43:34;;;;;;;19.45;14.95;;;14.10;82.30;;;;;;5008645;28;20392;-72
2021/06/24 02:46:00;;;;;;;21.67;15.88;;;14.10;82.30;;;;;;5009649;28;20042;-75
2021/06/24 02:48:26;;;;;;;18.60;15.77;;;14.10;82.40;;;;;;5011594;28;20068;-72
2021/06/24 02:50:52;;;;;;;18.45;14.73;;;14.10;82.50;;;;;;5014497;28;20033;-79
2021/06/24 02:53:17;;;;;;;18.88;15.43;;;14.10;82.40;;;;;;5011993;28;20445;-73
2021/06/24 02:55:43;;;;;;;22.65;16.13;;;14.10;82.60;;;;;;5010686;28;20073;-72
2021/06/24 02:58:10;;;;;;;21.42;15.60;;;14.10;82.60;;;;;;5007252;28;20052;-75
2021/06/24 03:00:35;;;;;;;17.05;15.25;;;14.20;82.60;;;;;;5009888;28;20064;-71
2021/06/24 03:03:01;;;;;;;21.52;16.38;;;14.10;82.70;;;;;;5010448;28;20123;-76
2021/06/24 03:05:26;;;;;;;19.05;16.20;;;14.20;82.60;;;;;;5005163;28;20037;-73
2021/06/24 03:07:52;;;;;;;19.77;15.95;;;14.10;82.70;;;;;;5012632;28;20547;-79
2021/06/24 03:10:20;;;;;;;19.90;17.73;;;14.20;82.80;;;;;;5009605;28;20040;-75
2021/06/24 03:12:46;;;;;;;23.92;17.73;;;14.20;82.80;;;;;;5011533;28;20034;-72
2021/06/24 03:15:12;;;;;;;20.73;18.25;;;14.20;82.90;;;;;;5005030;28;20044;-80
2021/06/24 03:17:38;;;;;;;22.25;18.25;;;14.20;83.00;;;;;;5020469;28;20052;-71
2021/06/24 03:20:07;;;;;;;20.63;17.45;;;14.20;82.90;;;;;;5007284;28;20420;-74
2021/06/24 03:22:34;;;;;;;21.30;17.50;;;14.20;82.90;;;;;;5011131;28;20033;-72
2021/06/24 03:25:01;;;;;;;22.38;18.73;;;14.30;83.00;;;;;;5010711;28;20068;-72
2021/06/24 03:27:26;;;;;;;25.90;19.45;;;14.30;83.00;;;;;;5013097;28;20046;-77
2021/06/24 03:29:52;;;;;;;23.52;20.45;;;14.20;83.00;;;;;;5012456;28;20029;-73
2021/06/24 03:32:17;;;;;;;23.58;19.05;;;14.30;83.00;;;;;;5014984;28;20077;-76
2021/06/24 03:34:43;;;;;;;25.52;20.23;;;14.20;83.30;;;;;;5012827;28;20041;-73
2021/06/24 03:37:09;;;;;;;23.20;19.83;;;14.10;83.40;;;;;;5013037;28;20034;-72
2021/06/24 03:39:34;;;;;;;23.02;20.50;;;14.10;83.60;;;;;;5011828;28;20038;-74
2021/06/24 03:42:00;;;;;;;25.58;20.02;;;14.20;83.70;;;;;;5013868;28;20116;-72
2021/06/24 03:44:26;;;;;;;23.08;20.55;;;14.10;83.80;;;;;;5012720;28;20047;-75
2021/06/24 03:46:52;;;;;;;25.23;21.50;;;14.20;83.80;;;;;;5011594;28;20057;-75
2021/06/24 03:49:18;;;;;;;30.70;22.15;;;14.20;83.80;;;;;;5011397;28;20136;-76
2021/06/24 03:51:44;;;;;;;22.98;20.58;;;14.20;83.90;;;;;;5012385;28;20401;-72
2021/06/24 03:54:09;;;;;;;25.73;22.80;;;14.20;83.90;;;;;;5010120;28;20084;-77
2021/06/24 03:56:35;;;;;;;25.65;21.88;;;14.20;84.00;;;;;;5010840;28;20125;-72
2021/06/24 03:59:01;;;;;;;24.40;21.80;;;14.20;83.90;;;;;;5018973;28;20049;-72
2021/06/24 04:01:27;;;;;;;27.00;22.52;;;14.20;83.90;;;;;;5022430;28;20120;-73
2021/06/24 04:03:52;;;;;;;25.45;22.15;;;14.20;84.00;;;;;;5015848;28;20466;-72
2021/06/24 04:06:18;;;;;;;26.95;21.98;;;14.20;84.00;;;;;;5011331;28;20034;-80
2021/06/24 04:08:44;;;;;;;26.40;23.55;;;14.20;84.10;;;;;;5015473;28;20120;-73
2021/06/24 04:11:09;;;;;;;25.92;21.13;;;14.30;84.10;;;;;;5015351;28;20069;-73
2021/06/24 04:13:36;;;;;;;26.52;22.50;;;14.30;84.10;;;;;;5011269;28;20065;-73
2021/06/24 04:16:02;;;;;;;25.13;22.52;;;14.30;84.10;;;;;;5012749;28;20100;-75
2021/06/24 04:18:27;;;;;;;26.90;21.42;;;14.30;84.10;;;;;;5012092;28;20128;-72
2021/06/24 04:20:53;;;;;;;28.50;22.48;;;14.30;84.10;;;;;;5012325;28;20042;-75
2021/06/24 04:23:18;;;;;;;26.63;23.83;;;14.30;84.00;;;;;;5014646;28;20180;-74
2021/06/24 04:25:44;;;;;;;25.75;22.33;;;14.30;84.20;;;;;;5013446;28;20092;-72
2021/06/24 04:28:10;;;;;;;25.10;22.48;;;14.30;84.30;;;;;;5013119;28;20040;-73
2021/06/24 04:30:36;;;;;;;24.98;22.23;;;14.30;84.40;;;;;;5009261;28;20034;-72
2021/06/24 04:33:01;;;;;;;31.58;21.92;;;14.40;84.20;;;;;;5013313;28;21428;-73
2021/06/24 04:35:27;;;;;;;25.98;21.40;;;14.30;84.20;;;;;;5010554;28;20073;-73
2021/06/24 04:37:53;;;;;;;24.42;21.27;;;14.40;84.30;;;;;;5016978;28;20041;-72
2021/06/24 04:40:19;;;;;;;25.67;22.77;;;14.40;84.10;;;;;;5009766;28;20476;-74
2021/06/24 04:42:44;;;;;;;26.65;22.42;;;14.30;84.20;;;;;;5012998;28;20057;-72
2021/06/24 04:45:13;;;;;;;29.92;22.60;;;14.30;84.30;;;;;;5010761;28;20503;-73
2021/06/24 04:47:40;;;;;;;25.10;21.83;;;14.30;84.40;;;;;;5015561;28;20143;-76
2021/06/24 04:50:06;;;;;;;26.00;22.67;;;14.20;84.40;;;;;;5012800;28;20038;-72
2021/06/24 04:52:32;;;;;;;23.35;20.77;;;14.30;84.60;;;;;;5005937;28;20489;-72
2021/06/24 04:54:58;;;;;;;24.75;21.00;;;14.30;84.70;;;;;;5016468;28;20033;-73
2021/06/24 04:57:23;;;;;;;25.95;22.02;;;14.30;84.70;;;;;;5010771;28;20048;-76
2021/06/24 04:59:49;;;;;;;24.55;20.90;;;14.40;84.50;;;;;;5014834;28;20033;-73
2021/06/24 05:02:16;;;;;;;23.75;21.10;;;14.40;84.50;;;;;;5010701;28;20080;-80
2021/06/24 05:04:42;;;;;;;26.67;21.75;;;14.40;84.40;;;;;;5016624;28;20129;-76
2021/06/24 05:07:10;;;;;;;23.30;20.90;;;14.40;84.40;;;;;;5027140;28;20048;-79
2021/06/24 05:09:39;;;;;;;25.88;21.90;;;14.40;84.40;;;;;;5012170;28;20100;-73
2021/06/24 05:12:09;;;;;;;22.25;19.95;;;14.40;84.30;;;;;;5009680;28;20378;-73
2021/06/24 05:14:36;;;;;;;22.55;20.15;;;14.50;84.30;;;;;;5014230;28;20042;-73
2021/06/24 05:17:02;;;;;;;23.58;19.42;;;14.50;84.20;;;;;;5008784;28;20555;-77
2021/06/24 05:19:28;;;;;;;24.77;20.73;;;14.50;84.20;;;;;;5010062;28;20388;-74
2021/06/24 05:21:54;;;;;;;23.90;20.38;;;14.60;84.20;;;;;;5012338;28;20099;-73
2021/06/24 05:24:20;;;;;;;24.80;20.92;;;14.60;84.10;;;;;;5012092;28;20096;-72
2021/06/24 05:26:45;;;;;;;27.77;21.08;;;14.50;84.20;;;;;;5011099;28;20426;-75
2021/06/24 05:29:11;;;;;;;25.42;20.38;;;14.50;84.20;;;;;;5009424;28;20044;-70
2021/06/24 05:31:39;;;;;;;26.23;20.95;;;14.50;84.30;;;;;;5008813;28;20133;-71
2021/06/24 05:34:05;;;;;;;25.65;20.65;;;14.50;84.40;;;;;;5006815;28;20427;-72
2021/06/24 05:36:31;;;;;;;26.90;20.38;;;14.50;84.40;;;;;;5011738;28;20030;-69
2021/06/24 05:38:58;;;;;;;22.27;19.98;;;14.50;84.50;;;;;;5013839;28;20084;-71
2021/06/24 05:41:23;;;;;;;23.63;20.77;;;14.50;84.50;;;;;;5007410;28;20037;-70
2021/06/24 05:43:49;;;;;;;25.80;21.85;;;14.60;84.60;;;;;;5012686;28;20041;-70
2021/06/24 05:46:15;;;;;;;23.77;20.35;;;14.50;84.50;;;;;;5010466;28;20057;-73
2021/06/24 05:48:41;;;;;;;23.45;20.83;;;14.60;84.60;;;;;;5009894;28;20049;-70
2021/06/24 05:51:06;;;;;;;23.63;21.13;;;14.60;84.50;;;;;;5012917;28;20414;-70
2021/06/24 05:53:32;;;;;;;26.63;22.48;;;14.60;84.70;;;;;;5024521;28;20160;-69
2021/06/24 05:55:58;;;;;;;29.60;23.05;;;14.60;84.80;;;;;;5016551;28;20041;-71
2021/06/24 05:58:26;;;;;;;27.77;21.98;;;14.60;84.60;;;;;;5011572;28;20049;-70
2021/06/24 06:00:54;;;;;;;31.48;22.13;;;14.60;84.70;;;;;;5011725;28;20600;-70
2021/06/24 06:03:20;;;;;;;24.65;21.55;;;14.60;84.60;;;;;;5018508;28;20388;-70
2021/06/24 06:05:50;;;;;;;28.38;23.35;;;14.60;84.60;;;;;;5021237;28;20032;-70
2021/06/24 06:08:16;;;;;;;24.85;22.00;;;14.70;84.70;;;;;;5016941;28;20508;-70
2021/06/24 06:10:42;;;;;;;25.95;21.98;;;14.60;84.50;;;;;;5020322;28;20041;-70
2021/06/24 06:13:08;;;;;;;27.27;23.10;;;14.70;84.50;;;;;;5025257;28;20384;-71
2021/06/24 06:15:48;;;;;;;25.42;22.63;;;14.70;84.40;;;;;;5021862;28;20045;-70
2021/06/24 06:18:15;;;;;;;27.40;22.27;;;14.70;84.40;;;;;;5016549;28;20045;-74
2021/06/24 06:20:41;;;;;;;25.20;22.38;;;14.80;84.20;;;;;;5012074;28;20600;-70
2021/06/24 06:23:07;;;;;;;28.25;22.40;;;14.80;84.10;;;;;;5015865;28;20038;-73
2021/06/24 06:25:33;;;;;;;24.40;21.75;;;14.90;83.90;;;;;;5012499;28;20034;-71
2021/06/24 06:27:58;;;;;;;29.92;22.48;;;14.90;83.90;;;;;;5013619;28;20037;-70
2021/06/24 06:30:26;;;;;;;30.65;22.27;;;14.90;83.60;;;;;;5008240;28;20038;-74
2021/06/24 06:32:52;;;;;;;24.15;21.65;;;14.90;83.90;;;;;;5013379;28;20034;-71
2021/06/24 06:35:17;;;;;;;21.73;19.38;;;15.00;83.60;;;;;;5008398;28;20037;-71
2021/06/24 06:37:43;;;;;;;25.52;21.88;;;15.00;83.40;;;;;;4997632;28;20046;-70
2021/06/24 06:40:09;;;;;;;28.35;21.90;;;15.10;83.20;;;;;;5023320;28;20069;-73
2021/06/24 06:42:36;;;;;;;25.00;21.52;;;15.10;83.20;;;;;;5012547;28;20041;-70
2021/06/24 06:45:02;;;;;;;31.90;20.83;;;15.20;82.90;;;;;;5001939;28;20437;-69
2021/06/24 06:47:27;;;;;;;34.92;22.50;;;15.20;83.00;;;;;;5008289;28;20030;-74
2021/06/24 06:49:53;;;;;;;37.10;23.17;;;15.30;82.80;;;;;;5010614;28;20033;-71
2021/06/24 06:52:19;;;;;;;29.48;21.33;;;15.30;82.80;;;;;;5001622;28;20056;-71
2021/06/24 06:54:44;;;;;;;26.40;21.85;;;15.40;83.00;;;;;;5015818;28;20064;-71
2021/06/24 06:57:10;;;;;;;28.83;22.25;;;15.30;82.80;;;;;;5017867;28;20463;-71
2021/06/24 06:59:36;;;;;;;31.40;22.02;;;15.40;82.70;;;;;;5014505;28;20033;-70
2021/06/24 07:02:02;;;;;;;25.50;22.05;;;15.40;82.50;;;;;;5017460;28;20030;-71
2021/06/24 07:04:27;;;;;;;24.70;22.05;;;15.40;82.80;;;;;;5024609;28;20113;-71
2021/06/24 07:06:53;;;;;;;31.60;23.40;;;15.50;82.50;;;;;;5012935;28;20045;-71
2021/06/24 07:09:18;;;;;;;26.83;22.55;;;15.50;82.40;;;;;;5011349;28;20658;-72
2021/06/24 07:11:44;;;;;;;27.83;22.88;;;15.60;81.80;;;;;;5018533;28;20380;-71
2021/06/24 07:14:10;;;;;;;26.83;23.92;;;15.60;82.00;;;;;;5022521;28;20057;-72
2021/06/24 07:16:36;;;;;;;24.65;22.13;;;15.70;81.60;;;;;;5021660;28;20048;-71
2021/06/24 07:19:01;;;;;;;25.52;22.80;;;15.70;81.00;;;;;;5015536;28;20029;-72
2021/06/24 07:21:27;;;;;;;26.30;21.05;;;15.80;80.90;;;;;;5025553;28;20041;-73
2021/06/24 07:23:53;;;;;;;23.40;21.10;;;15.90;81.10;;;;;;5017731;28;20416;-70
2021/06/24 07:26:19;;;;;;;28.73;21.90;;;16.10;80.70;;;;;;5027406;28;20068;-71
2021/06/24 07:28:44;;;;;;;23.58;21.17;;;16.10;79.90;;;;;;5019356;28;20036;-71
2021/06/24 07:31:10;;;;;;;22.75;20.23;;;16.30;79.70;;;;;;5023136;28;20689;-77
2021/06/24 07:33:36;;;;;;;23.10;20.70;;;16.40;80.00;;;;;;5025747;28;20496;-71
2021/06/24 07:36:02;;;;;;;25.77;20.80;;;16.30;79.60;;;;;;5028233;28;20385;-70
2021/06/24 07:38:28;;;;;;;24.70;19.92;;;16.30;79.30;;;;;;5022840;28;20052;-71
2021/06/24 07:40:54;;;;;;;23.85;20.40;;;16.40;78.60;;;;;;5016558;28;20022;-70
2021/06/24 07:43:20;;;;;;;28.13;19.95;;;16.30;79.00;;;;;;5022551;28;20037;-73
2021/06/24 07:45:46;;;;;;;21.23;18.92;;;16.50;79.20;;;;;;5010339;28;20598;-72
2021/06/24 07:48:12;;;;;;;25.50;19.27;;;16.50;79.00;;;;;;5020729;28;20500;-71
2021/06/24 07:50:38;;;;;;;21.80;19.05;;;16.60;78.10;;;;;;5022479;28;20053;-70
2021/06/24 07:53:05;;;;;;;20.58;17.98;;;16.80;78.60;;;;;;5011884;28;20441;-70
2021/06/24 07:55:33;;;;;;;21.08;18.88;;;16.90;77.90;;;;;;5017994;28;20045;-70
2021/06/24 07:58:03;;;;;;;30.08;19.50;;;17.10;77.60;;;;;;5017469;28;20038;-70
2021/06/24 08:00:31;;;;;;;23.35;19.58;;;17.10;76.30;;;;;;5022375;28;20509;-69
2021/06/24 08:02:56;;;;;;;23.15;20.27;;;17.10;76.30;;;;;;5022142;28;20038;-73
2021/06/24 08:05:22;;;;;;;23.40;18.65;;;17.20;76.20;;;;;;5007292;28;20037;-75
2021/06/24 08:07:49;;;;;;;21.17;18.90;;;17.10;76.10;;;;;;5011130;28;20037;-76
2021/06/24 08:10:18;;;;;;;24.95;18.90;;;17.30;76.30;;;;;;5008664;28;20780;-70
2021/06/24 08:12:44;;;;;;;23.45;19.42;;;17.30;76.40;;;;;;5011517;28;20033;-73
2021/06/24 08:15:11;;;;;;;25.52;19.58;;;17.40;75.60;;;;;;5007731;28;20053;-74
2021/06/24 08:17:37;;;;;;;22.52;18.27;;;17.60;75.70;;;;;;5005866;28;20041;-71
2021/06/24 08:20:07;;;;;;;20.27;17.52;;;17.60;75.40;;;;;;5009255;28;20037;-74
2021/06/24 08:22:33;;;;;;;19.15;17.13;;;17.70;73.90;;;;;;5016514;28;20430;-76
2021/06/24 08:24:59;;;;;;;22.95;17.38;;;17.80;74.20;;;;;;5017263;28;20133;-74
2021/06/24 08:27:25;;;;;;;19.98;15.57;;;17.70;73.10;;;;;;5013076;28;20042;-73
2021/06/24 08:29:50;;;;;;;20.38;17.00;;;17.70;73.10;;;;;;5007527;28;20187;-71
2021/06/24 08:32:16;;;;;;;20.90;15.70;;;17.80;73.70;;;;;;5006031;28;20109;-70
2021/06/24 08:34:42;;;;;;;17.35;14.43;;;17.80;74.30;;;;;;5008190;28;20436;-73
2021/06/24 08:37:08;;;;;;;18.73;14.75;;;18.00;73.70;;;;;;5009104;28;20120;-71
2021/06/24 08:39:33;;;;;;;19.55;14.98;;;18.00;73.00;;;;;;5005027;28;20115;-74
2021/06/24 08:42:00;;;;;;;20.33;15.23;;;18.10;73.10;;;;;;5010666;28;20297;-74
2021/06/24 08:44:26;;;;;;;16.30;14.55;;;18.40;72.10;;;;;;5011199;28;20037;-72
2021/06/24 08:46:56;;;;;;;17.17;13.52;;;18.40;71.00;;;;;;5011256;28;20440;-73
2021/06/24 08:49:24;;;;;;;16.83;14.13;;;18.50;70.80;;;;;;5008373;28;20144;-73
2021/06/24 08:51:55;;;;;;;17.17;14.68;;;18.60;71.30;;;;;;5012545;28;20034;-72
2021/06/24 08:54:21;;;;;;;17.13;13.85;;;18.70;70.70;;;;;;5006719;28;20069;-73
2021/06/24 08:56:48;;;;;;;17.15;13.68;;;18.70;70.40;;;;;;5016176;28;20033;-74
2021/06/24 08:59:13;;;;;;;18.35;13.35;;;18.70;69.60;;;;;;4997303;28;20106;-70
2021/06/24 09:01:51;;;;;;;17.17;13.20;;;18.70;70.80;;;;;;5008004;28;20443;-75
2021/06/24 09:04:19;;;;;;;18.80;12.95;;;18.70;70.10;;;;;;5004407;28;20029;-73
2021/06/24 09:06:45;;;;;;;15.73;13.00;;;18.80;68.90;;;;;;5016903;28;20171;-71
2021/06/24 09:09:15;;;;;;;15.93;13.25;;;18.80;69.50;;;;;;5008070;28;20034;-76
2021/06/24 09:11:45;;;;;;;17.58;13.57;;;18.80;68.90;;;;;;5014854;28;20037;-75
2021/06/24 09:14:13;;;;;;;17.48;13.82;;;18.80;68.50;;;;;;5013598;28;20488;-74
2021/06/24 09:16:41;;;;;;;15.43;13.35;;;18.80;68.40;;;;;;5008395;28;20030;-72
2021/06/24 09:19:27;;;;;;;18.58;14.15;;;19.00;68.20;;;;;;5012868;28;20496;-73
2021/06/24 09:22:13;;;;;;;15.85;12.43;;;18.90;66.90;;;;;;5017314;28;20098;-72
2021/06/24 09:24:47;;;;;;;16.83;12.88;;;19.20;65.80;;;;;;5010260;28;20033;-73
2021/06/24 09:27:18;;;;;;;19.08;13.48;;;19.30;65.50;;;;;;5017388;28;20428;-72
2021/06/24 09:30:08;;;;;;;17.75;13.82;;;19.30;65.20;;;;;;5017406;28;20042;-74
2021/06/24 09:32:35;;;;;;;15.20;12.82;;;19.20;65.00;;;;;;5010670;28;20040;-71
2021/06/24 09:35:03;;;;;;;18.23;14.43;;;19.50;65.00;;;;;;5019713;28;20440;-71
2021/06/24 09:37:47;;;;;;;15.20;13.15;;;19.50;64.00;;;;;;5023781;28;20057;-71
2021/06/24 09:40:13;;;;;;;;;;;19.50;64.90;;;;;;5017051;28;20440;-70
2021/06/24 09:42:39;;;;;;;20.42;14.88;;;19.70;64.90;;;;;;5019936;28;19944;-71
2021/06/24 09:45:07;;;;;;;22.50;15.15;;;19.60;64.00;;;;;;5022728;28;20507;-72
2021/06/24 09:47:33;;;;;;;16.92;14.50;;;19.50;64.40;;;;;;5019831;28;20030;-71
2021/06/24 09:50:09;;;;;;;18.25;14.82;;;19.50;65.10;;;;;;5026225;28;20044;-72
2021/06/24 09:52:36;;;;;;;18.33;15.43;;;19.60;65.20;;;;;;5014546;28;20026;-70
2021/06/24 09:55:07;;;;;;;19.00;15.25;;;19.60;63.80;;;;;;5022924;28;20034;-72
2021/06/24 09:57:34;;;;;;;22.38;16.08;;;19.60;64.60;;;;;;5018224;28;20108;-72
2021/06/24 10:00:28;;;;;;;20.95;16.77;;;19.30;64.10;;;;;;5019257;28;20486;-72
2021/06/24 10:03:08;;;;;;;20.52;16.17;;;19.20;64.70;;;;;;5015614;28;20033;-76
2021/06/24 10:05:35;;;;;;;20.95;17.55;;;19.40;64.40;;;;;;5019189;28;20017;-71
2021/06/24 10:08:01;;;;;;;24.92;18.20;;;19.50;63.80;;;;;;5020491;28;20072;-72
2021/06/24 10:10:27;;;;;;;24.95;18.65;;;19.60;63.70;;;;;;5019094;28;20368;-71
2021/06/24 10:12:52;;;;;;;23.75;19.10;;;19.50;61.70;;;;;;5016833;28;20548;-72
2021/06/24 10:15:19;;;;;;;25.05;19.90;;;19.50;63.20;;;;;;5023270;28;20018;-72
2021/06/24 10:17:44;;;;;;;22.98;18.17;;;19.80;61.50;;;;;;5019944;28;20044;-72
2021/06/24 10:20:14;;;;;;;24.00;19.52;;;19.90;61.70;;;;;;5016195;28;20037;-74
2021/06/24 10:22:41;;;;;;;23.40;20.90;;;20.10;61.40;;;;;;5019944;28;20033;-72
2021/06/24 10:25:13;;;;;;;25.33;21.55;;;20.50;60.50;;;;;;5019878;28;20026;-73
2021/06/24 10:27:45;;;;;;;22.27;19.90;;;20.50;59.00;;;;;;5014829;28;20033;-74
2021/06/24 10:30:20;;;;;;;27.00;21.00;;;20.70;58.60;;;;;;5009002;28;20024;-76
2021/06/24 10:33:00;;;;;;;24.85;20.77;;;20.50;58.10;;;;;;5015931;28;20030;-71
2021/06/24 10:35:37;;;;;;;25.42;22.02;;;20.40;58.10;;;;;;5017022;28;20026;-73
2021/06/24 10:38:04;;;;;;;25.63;21.38;;;20.30;58.70;;;;;;5025095;28;20116;-71
2021/06/24 10:40:56;;;;;;;25.45;20.85;;;20.50;59.30;;;;;;5022483;28;20059;-72
2021/06/24 10:43:24;;;;;;;28.38;21.90;;;20.70;59.90;;;;;;5023646;28;20044;-71
2021/06/24 10:46:09;;;;;;;25.85;21.92;;;20.60;58.70;;;;;;5015989;28;20030;-71
2021/06/24 10:48:35;;;;;;;26.13;20.90;;;20.20;59.70;;;;;;5011775;28;20045;-72
2021/06/24 10:51:11;;;;;;;25.75;20.40;;;20.60;59.70;;;;;;4999743;28;20462;-72
2021/06/24 10:53:55;;;;;;;23.02;19.63;;;20.40;59.70;;;;;;5000397;28;20421;-71
2021/06/24 10:56:30;;;;;;;23.70;20.03;;;20.90;58.70;;;;;;4999682;28;25529;-72
2021/06/24 10:58:57;;;;;;;23.95;19.70;;;20.80;58.10;;;;;;4995396;28;20046;-71
2021/06/24 11:01:42;;;;;;;23.73;21.25;;;21.10;58.80;;;;;;4997550;28;20043;-71
2021/06/24 11:04:24;;;;;;;23.48;20.83;;;21.30;56.20;;;;;;4995009;28;20109;-71
2021/06/24 11:06:52;;;;;;;21.40;18.05;;;21.10;57.50;;;;;;5000813;28;20429;-72
2021/06/24 11:09:19;;;;;;;23.08;20.55;;;21.10;60.20;;;;;;5000456;28;20084;-71
2021/06/24 11:11:45;;;;;;;27.60;20.85;;;21.00;58.70;;;;;;4996931;28;20113;-75
2021/06/24 11:14:14;;;;;;;21.70;19.08;;;20.70;58.70;;;;;;5007875;28;20113;-72
2021/06/24 11:16:41;;;;;;;22.80;20.35;;;20.50;60.30;;;;;;4998944;28;20100;-71
2021/06/24 11:19:10;;;;;;;22.40;19.48;;;20.30;60.50;;;;;;4999150;28;20053;-72
2021/06/24 11:21:35;;;;;;;23.40;20.38;;;20.20;62.30;;;;;;5005802;28;20030;-72
2021/06/24 11:24:07;;;;;;;22.15;19.38;;;20.20;62.70;;;;;;5005343;28;20038;-73
2021/06/24 11:26:39;;;;;;;22.15;18.25;;;20.10;63.00;;;;;;4997071;28;20116;-72
2021/06/24 11:29:17;;;;;;;22.65;17.42;;;19.90;64.10;;;;;;5000326;28;20038;-71
2021/06/24 11:34:59;;;;;;;23.00;18.05;;;19.70;64.90;;;;;;4995678;28;20045;-70
2021/06/24 11:37:27;;;;;;;21.95;19.63;;;20.00;64.30;;;;;;4997335;28;20034;-72
2021/06/24 11:40:06;;;;;;;21.65;18.55;;;19.60;64.70;;;;;;4995468;28;20038;-70
2021/06/24 11:42:43;;;;;;;22.67;20.15;;;19.40;64.20;;;;;;5000146;28;20857;-73
2021/06/24 11:45:11;;;;;;;23.75;20.65;;;19.60;64.60;;;;;;4992841;28;20026;-70
2021/06/24 11:47:38;;;;;;;24.10;21.70;;;19.60;64.40;;;;;;4997923;28;20029;-71
2021/06/24 12:04:06;;;;;;;;;;;20.80;59.30;;;;;;4995465;28;20034;-71
2021/06/24 12:06:49;;;;;;;21.25;18.95;;;20.80;61.40;;;;;;4992921;28;19918;-71
2021/06/24 12:09:21;;;;;;;22.60;19.80;;;20.60;61.60;;;;;;4994132;28;20061;-71
2021/06/24 12:11:50;;;;;;;22.52;20.27;;;20.90;61.00;;;;;;4992797;28;20513;-71
2021/06/24 12:14:22;;;;;;;22.27;18.58;;;20.80;61.10;;;;;;4989465;28;20031;-71
2021/06/24 12:17:12;;;;;;;22.42;19.15;;;20.90;60.10;;;;;;4993171;28;20052;-72
2021/06/24 12:20:05;;;;;;;21.20;19.05;;;20.60;61.10;;;;;;4995539;28;20033;-72
2021/06/24 12:22:39;;;;;;;21.90;19.02;;;20.60;62.80;;;;;;4994898;28;20038;-71
2021/06/24 12:25:16;;;;;;;23.23;18.85;;;20.60;62.20;;;;;;5000718;28;20040;-71
2021/06/24 12:27:48;;;;;;;21.02;18.88;;;20.30;63.20;;;;;;4995095;28;20127;-72
2021/06/24 12:30:17;;;;;;;21.10;18.90;;;20.50;61.80;;;;;;4993547;28;20022;-71
2021/06/24 12:33:05;;;;;;;20.08;17.92;;;20.40;62.30;;;;;;5001116;28;20113;-71
2021/06/24 12:35:33;;;;;;;24.02;19.05;;;20.20;62.10;;;;;;4988913;28;20661;-70
2021/06/24 12:38:02;;;;;;;22.92;19.50;;;20.20;62.70;;;;;;4997792;28;20046;-72
2021/06/24 12:40:32;;;;;;;23.02;19.88;;;20.30;61.70;;;;;;4996406;28;20402;-73
2021/06/24 12:42:59;;;;;;;21.77;19.50;;;20.30;62.10;;;;;;4992961;28;20546;-71
2021/06/24 12:45:27;;;;;;;20.33;18.20;;;20.30;62.30;;;;;;4999303;28;20033;-71
2021/06/24 12:47:55;;;;;;;21.15;18.70;;;20.80;61.90;;;;;;4999600;28;20045;-77
2021/06/24 12:50:27;;;;;;;20.42;18.23;;;21.00;60.70;;;;;;4997027;28;20092;-71